createdAt,value
2016-03-10T00:00:01.794Z,983.41
2016-03-10T00:01:01.782Z,983.47
2016-03-10T00:02:01.769Z,983.44
2016-03-10T00:03:01.787Z,983.46
2016-03-10T00:04:01.758Z,983.49
2016-03-10T00:05:01.761Z,983.52
2016-03-10T00:06:01.754Z,983.54
2016-03-10T00:07:01.742Z,983.49
2016-03-10T00:08:01.744Z,983.55
2016-03-10T00:09:01.731Z,983.57
2016-03-10T00:10:01.718Z,983.56
2016-03-10T00:11:01.720Z,983.58
2016-03-10T00:12:01.708Z,983.55
2016-03-10T00:13:01.710Z,983.6
2016-03-10T00:14:01.697Z,983.64
2016-03-10T00:15:01.685Z,983.61
2016-03-10T00:16:01.688Z,983.62
2016-03-10T00:17:01.674Z,983.6
2016-03-10T00:18:01.678Z,983.63
2016-03-10T00:19:01.664Z,983.63
2016-03-10T00:20:01.652Z,983.67
2016-03-10T00:21:01.654Z,983.66
2016-03-10T00:22:01.641Z,983.71
2016-03-10T00:23:01.627Z,983.72
2016-03-10T00:24:01.631Z,983.73
2016-03-10T00:25:01.633Z,983.74
2016-03-10T00:26:01.605Z,983.73
2016-03-10T00:27:01.607Z,983.78
2016-03-10T00:28:01.595Z,983.79
2016-03-10T00:29:01.598Z,983.76
2016-03-10T00:30:01.584Z,983.79
2016-03-10T00:31:01.588Z,983.84
2016-03-10T00:32:01.564Z,983.83
2016-03-10T00:33:01.556Z,983.88
2016-03-10T00:34:01.558Z,983.91
2016-03-10T00:35:01.545Z,983.9
2016-03-10T00:36:01.548Z,983.94
2016-03-10T00:37:01.536Z,983.98
2016-03-10T00:38:01.529Z,983.98
2016-03-10T00:39:01.515Z,984
2016-03-10T00:40:01.518Z,984
2016-03-10T00:41:01.505Z,984.02
2016-03-10T00:42:01.509Z,984.02
2016-03-10T00:43:01.495Z,984.05
2016-03-10T00:44:01.482Z,984.04
2016-03-10T00:45:01.485Z,984.08
2016-03-10T00:46:01.473Z,984.09
2016-03-10T00:47:01.459Z,984.11
2016-03-10T00:48:01.462Z,984.13
2016-03-10T00:49:01.448Z,984.11
2016-03-10T00:50:01.451Z,984.15
2016-03-10T00:51:01.439Z,984.18
2016-03-10T00:52:01.426Z,984.15
2016-03-10T00:53:01.414Z,984.16
2016-03-10T00:54:01.416Z,984.14
2016-03-10T00:55:01.402Z,984.14
2016-03-10T00:56:01.405Z,984.14
2016-03-10T00:57:01.392Z,984.19
2016-03-10T00:58:01.394Z,984.21
2016-03-10T00:59:01.383Z,984.21
2016-03-10T01:00:01.369Z,984.25
2016-03-10T01:01:01.356Z,984.22
2016-03-10T01:02:01.358Z,984.24
2016-03-10T01:03:01.346Z,984.24
2016-03-10T01:04:01.348Z,984.22
2016-03-10T01:05:01.336Z,984.21
2016-03-10T01:06:01.323Z,984.22
2016-03-10T01:07:01.326Z,984.22
2016-03-10T01:08:01.312Z,984.25
2016-03-10T01:09:01.299Z,984.25
2016-03-10T01:10:01.302Z,984.25
2016-03-10T01:11:01.290Z,984.26
2016-03-10T01:12:01.276Z,984.29
2016-03-10T01:13:01.279Z,984.3
2016-03-10T01:14:01.266Z,984.29
2016-03-10T01:15:01.268Z,984.29
2016-03-10T01:16:01.256Z,984.28
2016-03-10T01:17:01.242Z,984.27
2016-03-10T01:18:01.230Z,984.29
2016-03-10T01:19:01.233Z,984.3
2016-03-10T01:20:01.236Z,984.3
2016-03-10T01:21:01.222Z,984.33
2016-03-10T01:22:01.209Z,984.31
2016-03-10T01:23:01.211Z,984.26
2016-03-10T01:24:01.200Z,984.25
2016-03-10T01:25:01.186Z,984.27
2016-03-10T01:26:01.189Z,984.27
2016-03-10T01:27:01.176Z,984.3
2016-03-10T01:28:01.164Z,984.27
2016-03-10T01:29:01.150Z,984.24
2016-03-10T01:30:01.153Z,984.22
2016-03-10T01:31:01.140Z,984.26
2016-03-10T01:32:01.158Z,984.27
2016-03-10T01:33:01.130Z,984.26
2016-03-10T01:34:01.133Z,984.29
2016-03-10T01:35:01.119Z,984.26
2016-03-10T01:36:01.106Z,984.25
2016-03-10T01:37:01.093Z,984.27
2016-03-10T01:38:01.096Z,984.26
2016-03-10T01:39:01.083Z,984.29
2016-03-10T01:40:01.070Z,984.31
2016-03-10T01:41:01.074Z,984.32
2016-03-10T01:42:01.060Z,984.31
2016-03-10T01:43:01.048Z,984.31
2016-03-10T01:44:01.050Z,984.32
2016-03-10T01:45:01.037Z,984.28
2016-03-10T01:46:01.039Z,984.3
2016-03-10T01:47:01.027Z,984.26
2016-03-10T01:48:01.029Z,984.3
2016-03-10T01:49:01.032Z,984.32
2016-03-10T01:50:01.019Z,984.27
2016-03-10T01:51:01.006Z,984.26
2016-03-10T01:52:00.993Z,984.29
2016-03-10T01:53:00.981Z,984.29
2016-03-10T01:54:00.983Z,984.33
2016-03-10T01:55:00.970Z,984.37
2016-03-10T01:56:00.973Z,984.33
2016-03-10T01:57:00.975Z,984.33
2016-03-10T01:58:00.947Z,984.37
2016-03-10T01:59:00.933Z,984.33
2016-03-10T02:00:00.936Z,984.4
2016-03-10T02:01:00.924Z,984.39
2016-03-10T02:02:00.926Z,984.38
2016-03-10T02:03:00.913Z,984.42
2016-03-10T02:04:00.900Z,984.38
2016-03-10T02:05:00.902Z,984.42
2016-03-10T02:06:00.891Z,984.43
2016-03-10T02:07:00.877Z,984.43
2016-03-10T02:08:00.865Z,984.46
2016-03-10T02:09:00.868Z,984.47
2016-03-10T02:10:00.855Z,984.48
2016-03-10T02:11:00.857Z,984.49
2016-03-10T02:12:00.844Z,984.54
2016-03-10T02:13:00.831Z,984.52
2016-03-10T02:14:00.834Z,984.49
2016-03-10T02:15:00.837Z,984.57
2016-03-10T02:16:00.823Z,984.5
2016-03-10T02:17:00.810Z,984.5
2016-03-10T02:18:00.797Z,984.52
2016-03-10T02:19:00.800Z,984.51
2016-03-10T02:20:00.787Z,984.53
2016-03-10T02:21:00.775Z,984.56
2016-03-10T02:22:00.777Z,984.54
2016-03-10T02:23:00.781Z,984.56
2016-03-10T02:24:00.767Z,984.61
2016-03-10T02:25:00.754Z,984.61
2016-03-10T02:26:00.741Z,984.58
2016-03-10T02:27:00.744Z,984.63
2016-03-10T02:28:00.730Z,984.64
2016-03-10T02:29:00.718Z,984.66
2016-03-10T02:30:00.720Z,984.66
2016-03-10T02:31:00.708Z,984.65
2016-03-10T02:32:00.694Z,984.69
2016-03-10T02:33:00.697Z,984.65
2016-03-10T02:34:00.685Z,984.73
2016-03-10T02:35:00.671Z,984.74
2016-03-10T02:36:00.674Z,984.73
2016-03-10T02:37:00.661Z,984.75
2016-03-10T02:38:00.664Z,984.77
2016-03-10T02:39:00.651Z,984.79
2016-03-10T02:40:00.638Z,984.8
2016-03-10T02:41:00.640Z,984.8
2016-03-10T02:42:00.627Z,984.81
2016-03-10T02:43:00.615Z,984.79
2016-03-10T02:44:00.602Z,984.84
2016-03-10T02:45:00.604Z,984.85
2016-03-10T02:46:00.592Z,984.83
2016-03-10T02:47:00.594Z,984.86
2016-03-10T02:48:00.582Z,984.82
2016-03-10T02:49:00.568Z,984.87
2016-03-10T02:50:00.571Z,984.89
2016-03-10T02:51:00.558Z,984.88
2016-03-10T02:52:00.562Z,984.93
2016-03-10T02:53:00.548Z,984.92
2016-03-10T02:54:00.535Z,984.98
2016-03-10T02:55:00.522Z,985.02
2016-03-10T02:56:00.525Z,985.02
2016-03-10T02:57:00.512Z,985.06
2016-03-10T02:58:00.500Z,985.06
2016-03-10T02:59:00.502Z,985.06
2016-03-10T03:00:00.504Z,985.1
2016-03-10T03:01:00.491Z,985.17
2016-03-10T03:02:00.478Z,985.18
2016-03-10T03:03:00.481Z,985.17
2016-03-10T03:04:00.452Z,985.23
2016-03-10T03:05:00.455Z,985.26
2016-03-10T03:06:00.442Z,985.3
2016-03-10T03:07:00.430Z,985.34
2016-03-10T03:08:00.432Z,985.31
2016-03-10T03:09:00.419Z,985.34
2016-03-10T03:10:00.421Z,985.33
2016-03-10T03:11:00.409Z,985.34
2016-03-10T03:12:00.396Z,985.34
2016-03-10T03:13:00.430Z,985.33
2016-03-10T03:14:00.385Z,985.35
2016-03-10T03:15:00.388Z,985.35
2016-03-10T03:16:00.376Z,985.42
2016-03-10T03:17:00.379Z,985.42
2016-03-10T03:18:00.365Z,985.45
2016-03-10T03:19:00.352Z,985.42
2016-03-10T03:20:00.340Z,985.46
2016-03-10T03:21:00.343Z,985.47
2016-03-10T03:22:00.329Z,985.49
2016-03-10T03:23:00.332Z,985.51
2016-03-10T03:24:00.319Z,985.5
2016-03-10T03:25:00.322Z,985.5
2016-03-10T03:26:00.293Z,985.53
2016-03-10T03:27:00.296Z,985.51
2016-03-10T03:28:00.314Z,985.52
2016-03-10T03:29:00.285Z,985.55
2016-03-10T03:30:00.272Z,985.58
2016-03-10T03:31:00.259Z,985.58
2016-03-10T03:32:00.247Z,985.61
2016-03-10T03:33:00.249Z,985.63
2016-03-10T03:34:00.236Z,985.59
2016-03-10T03:35:00.224Z,985.63
2016-03-10T03:36:00.211Z,985.62
2016-03-10T03:37:00.213Z,985.66
2016-03-10T03:38:00.199Z,985.69
2016-03-10T03:39:00.202Z,985.7
2016-03-10T03:40:00.190Z,985.71
2016-03-10T03:41:00.177Z,985.75
2016-03-10T03:42:00.179Z,985.74
2016-03-10T03:43:00.166Z,985.75
2016-03-10T03:44:00.153Z,985.72
2016-03-10T03:45:00.156Z,985.76
2016-03-10T03:46:00.143Z,985.78
2016-03-10T03:47:00.131Z,985.81
2016-03-10T03:48:00.133Z,985.83
2016-03-10T03:49:00.121Z,985.83
2016-03-10T03:50:00.107Z,985.89
2016-03-10T03:51:00.110Z,985.89
2016-03-10T03:52:00.112Z,985.91
2016-03-10T03:53:00.084Z,985.94
2016-03-10T03:54:00.087Z,985.98
2016-03-10T03:55:00.074Z,986
2016-03-10T03:56:00.076Z,986.06
2016-03-10T03:57:00.064Z,986.06
2016-03-10T03:58:00.066Z,986.1
2016-03-10T03:59:00.053Z,986.14
2016-03-10T04:00:00.041Z,986.17
2016-03-10T04:01:00.028Z,986.2
2016-03-10T04:02:00.014Z,986.18
2016-03-10T04:03:00.017Z,986.18
2016-03-10T04:04:00.020Z,986.21
2016-03-10T04:05:00.055Z,986.22
2016-03-10T04:06:00.057Z,986.25
2016-03-10T04:06:59.981Z,986.21
2016-03-10T04:07:59.968Z,986.23
2016-03-10T04:08:59.971Z,986.24
2016-03-10T04:09:59.958Z,986.22
2016-03-10T04:10:59.945Z,986.29
2016-03-10T04:11:59.948Z,986.28
2016-03-10T04:12:59.934Z,986.33
2016-03-10T04:13:59.938Z,986.34
2016-03-10T04:14:59.924Z,986.4
2016-03-10T04:15:59.912Z,986.37
2016-03-10T04:16:59.914Z,986.38
2016-03-10T04:17:59.902Z,986.37
2016-03-10T04:18:59.888Z,986.4
2016-03-10T04:19:59.891Z,986.39
2016-03-10T04:20:59.894Z,986.39
2016-03-10T04:21:59.866Z,986.41
2016-03-10T04:22:59.853Z,986.44
2016-03-10T04:23:59.856Z,986.41
2016-03-10T04:24:59.843Z,986.43
2016-03-10T04:25:59.845Z,986.44
2016-03-10T04:26:59.831Z,986.45
2016-03-10T04:27:59.819Z,986.47
2016-03-10T04:28:59.806Z,986.47
2016-03-10T04:29:59.809Z,986.45
2016-03-10T04:30:59.795Z,986.43
2016-03-10T04:31:59.783Z,986.43
2016-03-10T04:32:59.786Z,986.41
2016-03-10T04:33:59.773Z,986.42
2016-03-10T04:34:59.775Z,986.49
2016-03-10T04:35:59.777Z,986.49
2016-03-10T04:36:59.749Z,986.53
2016-03-10T04:37:59.752Z,986.55
2016-03-10T04:38:59.739Z,986.59
2016-03-10T04:39:59.741Z,986.57
2016-03-10T04:40:59.729Z,986.58
2016-03-10T04:41:59.715Z,986.56
2016-03-10T04:42:59.718Z,986.6
2016-03-10T04:43:59.705Z,986.59
2016-03-10T04:44:59.693Z,986.64
2016-03-10T04:45:59.679Z,986.62
2016-03-10T04:46:59.682Z,986.64
2016-03-10T04:47:59.670Z,986.67
2016-03-10T04:48:59.657Z,986.69
2016-03-10T04:49:59.643Z,986.66
2016-03-10T04:50:59.646Z,986.68
2016-03-10T04:51:59.633Z,986.72
2016-03-10T04:52:59.621Z,986.71
2016-03-10T04:53:59.623Z,986.72
2016-03-10T04:54:59.610Z,986.74
2016-03-10T04:55:59.597Z,986.74
2016-03-10T04:56:59.615Z,986.75
2016-03-10T04:57:59.602Z,986.78
2016-03-10T04:58:59.575Z,986.81
2016-03-10T04:59:59.577Z,986.8
2016-03-10T05:00:59.564Z,986.84
2016-03-10T05:01:59.566Z,986.85
2016-03-10T05:02:59.553Z,986.86
2016-03-10T05:03:59.541Z,986.83
2016-03-10T05:04:59.527Z,986.87
2016-03-10T05:05:59.530Z,986.88
2016-03-10T05:06:59.517Z,986.93
2016-03-10T05:07:59.505Z,986.94
2016-03-10T05:08:59.507Z,986.9
2016-03-10T05:09:59.494Z,986.95
2016-03-10T05:10:59.482Z,986.97
2016-03-10T05:11:59.485Z,986.93
2016-03-10T05:12:59.488Z,987.01
2016-03-10T05:13:59.458Z,987.01
2016-03-10T05:14:59.461Z,987.05
2016-03-10T05:15:59.448Z,987.02
2016-03-10T05:16:59.435Z,987.05
2016-03-10T05:17:59.422Z,987.11
2016-03-10T05:18:59.424Z,987.1
2016-03-10T05:19:59.412Z,987.14
2016-03-10T05:20:59.415Z,987.13
2016-03-10T05:21:59.401Z,987.17
2016-03-10T05:22:59.389Z,987.18
2016-03-10T05:23:59.392Z,987.21
2016-03-10T05:24:59.378Z,987.21
2016-03-10T05:25:59.365Z,987.27
2016-03-10T05:26:59.368Z,987.27
2016-03-10T05:27:59.356Z,987.31
2016-03-10T05:28:59.342Z,987.33
2016-03-10T05:29:59.329Z,987.37
2016-03-10T05:30:59.332Z,987.38
2016-03-10T05:31:59.319Z,987.37
2016-03-10T05:32:59.306Z,987.39
2016-03-10T05:33:59.324Z,987.41
2016-03-10T05:34:59.296Z,987.38
2016-03-10T05:35:59.283Z,987.44
2016-03-10T05:36:59.285Z,987.43
2016-03-10T05:37:59.272Z,987.44
2016-03-10T05:38:59.275Z,987.46
2016-03-10T05:39:59.262Z,987.47
2016-03-10T05:40:59.249Z,987.5
2016-03-10T05:41:59.252Z,987.51
2016-03-10T05:42:59.239Z,987.53
2016-03-10T05:43:59.227Z,987.56
2016-03-10T05:44:59.213Z,987.53
2016-03-10T05:45:59.201Z,987.55
2016-03-10T05:46:59.204Z,987.53
2016-03-10T05:47:59.191Z,987.58
2016-03-10T05:48:59.193Z,987.58
2016-03-10T05:49:59.180Z,987.59
2016-03-10T05:50:59.168Z,987.61
2016-03-10T05:51:59.170Z,987.62
2016-03-10T05:52:59.157Z,987.61
2016-03-10T05:53:59.143Z,987.64
2016-03-10T05:54:59.146Z,987.65
2016-03-10T05:55:59.134Z,987.68
2016-03-10T05:56:59.120Z,987.67
2016-03-10T05:57:59.108Z,987.66
2016-03-10T05:58:59.111Z,987.76
2016-03-10T05:59:59.097Z,987.73
2016-03-10T06:00:59.084Z,987.73
2016-03-10T06:01:59.086Z,987.76
2016-03-10T06:02:59.074Z,987.75
2016-03-10T06:03:59.077Z,987.77
2016-03-10T06:04:59.064Z,987.83
2016-03-10T06:05:59.049Z,987.81
2016-03-10T06:06:59.051Z,987.83
2016-03-10T06:07:59.039Z,987.81
2016-03-10T06:08:59.026Z,987.85
2016-03-10T06:09:59.014Z,987.86
2016-03-10T06:10:59.016Z,987.86
2016-03-10T06:11:59.002Z,987.89
2016-03-10T06:12:58.989Z,987.88
2016-03-10T06:13:58.992Z,987.89
2016-03-10T06:14:58.980Z,987.94
2016-03-10T06:15:58.966Z,987.99
2016-03-10T06:16:58.969Z,987.97
2016-03-10T06:17:58.956Z,988.01
2016-03-10T06:18:58.944Z,988.02
2016-03-10T06:19:58.946Z,988.06
2016-03-10T06:20:58.933Z,988.06
2016-03-10T06:21:58.920Z,988.11
2016-03-10T06:22:58.923Z,988.08
2016-03-10T06:23:58.910Z,988.09
2016-03-10T06:24:58.897Z,988.08
2016-03-10T06:25:58.899Z,988.12
2016-03-10T06:26:58.887Z,988.11
2016-03-10T06:27:58.873Z,988.12
2016-03-10T06:28:58.876Z,988.14
2016-03-10T06:29:58.863Z,988.13
2016-03-10T06:30:58.851Z,988.17
2016-03-10T06:31:58.853Z,988.17
2016-03-10T06:32:58.841Z,988.17
2016-03-10T06:33:58.843Z,988.2
2016-03-10T06:34:58.831Z,988.21
2016-03-10T06:35:58.833Z,988.26
2016-03-10T06:36:58.820Z,988.26
2016-03-10T06:37:58.806Z,988.29
2016-03-10T06:38:58.810Z,988.32
2016-03-10T06:39:58.797Z,988.35
2016-03-10T06:40:58.784Z,988.35
2016-03-10T06:41:58.770Z,988.35
2016-03-10T06:42:58.773Z,988.4
2016-03-10T06:43:58.761Z,988.4
2016-03-10T06:44:58.764Z,988.44
2016-03-10T06:45:58.750Z,988.47
2016-03-10T06:46:58.753Z,988.49
2016-03-10T06:47:58.741Z,988.52
2016-03-10T06:48:58.744Z,988.56
2016-03-10T06:49:58.730Z,988.59
2016-03-10T06:50:58.716Z,988.62
2016-03-10T06:51:58.705Z,988.6
2016-03-10T06:52:58.707Z,988.65
2016-03-10T06:53:58.694Z,988.61
2016-03-10T06:54:58.696Z,988.6
2016-03-10T06:55:58.683Z,988.65
2016-03-10T06:56:58.670Z,988.63
2016-03-10T06:57:58.674Z,988.63
2016-03-10T06:58:58.660Z,988.64
2016-03-10T06:59:58.663Z,988.67
2016-03-10T07:00:58.651Z,988.68
2016-03-10T07:01:58.654Z,988.69
2016-03-10T07:02:58.640Z,988.68
2016-03-10T07:03:58.627Z,988.71
2016-03-10T07:04:58.629Z,988.76
2016-03-10T07:05:58.617Z,988.75
2016-03-10T07:06:58.604Z,988.74
2016-03-10T07:07:58.607Z,988.77
2016-03-10T07:08:58.593Z,988.79
2016-03-10T07:09:58.595Z,988.79
2016-03-10T07:10:58.583Z,988.81
2016-03-10T07:11:58.586Z,988.82
2016-03-10T07:12:58.573Z,988.82
2016-03-10T07:13:58.560Z,988.82
2016-03-10T07:14:58.564Z,988.87
2016-03-10T07:15:58.566Z,988.89
2016-03-10T07:16:58.553Z,988.93
2016-03-10T07:17:58.539Z,988.91
2016-03-10T07:18:58.527Z,988.84
2016-03-10T07:19:58.529Z,988.87
2016-03-10T07:20:58.517Z,988.87
2016-03-10T07:21:58.519Z,988.87
2016-03-10T07:22:58.506Z,988.92
2016-03-10T07:23:58.508Z,988.92
2016-03-10T07:24:58.496Z,988.95
2016-03-10T07:25:58.483Z,988.93
2016-03-10T07:26:58.485Z,988.94
2016-03-10T07:27:58.488Z,988.99
2016-03-10T07:28:58.476Z,988.97
2016-03-10T07:29:58.479Z,989.01
2016-03-10T07:30:58.465Z,989.03
2016-03-10T07:31:58.452Z,989.01
2016-03-10T07:32:58.454Z,989.01
2016-03-10T07:33:58.443Z,989.03
2016-03-10T07:34:58.445Z,989.09
2016-03-10T07:35:58.432Z,989.08
2016-03-10T07:36:58.434Z,989.09
2016-03-10T07:37:58.437Z,989.11
2016-03-10T07:38:58.424Z,989.14
2016-03-10T07:39:58.426Z,989.12
2016-03-10T07:40:58.414Z,989.08
2016-03-10T07:41:58.417Z,989.13
2016-03-10T07:42:58.420Z,989.16
2016-03-10T07:43:58.406Z,989.22
2016-03-10T07:44:58.409Z,989.19
2016-03-10T07:45:58.412Z,989.22
2016-03-10T07:46:58.409Z,989.23
2016-03-10T07:47:58.404Z,989.25
2016-03-10T07:48:58.401Z,989.23
2016-03-10T07:49:58.382Z,989.22
2016-03-10T07:50:58.379Z,989.22
2016-03-10T07:51:58.378Z,989.28
2016-03-10T07:52:58.379Z,989.23
2016-03-10T07:53:58.379Z,989.25
2016-03-10T07:54:58.394Z,989.28
2016-03-10T07:55:58.380Z,989.29
2016-03-10T07:56:58.381Z,989.29
2016-03-10T07:57:58.399Z,989.31
2016-03-10T07:58:58.369Z,989.33
2016-03-10T07:59:58.371Z,989.34
2016-03-10T08:00:58.373Z,989.31
2016-03-10T08:01:58.375Z,989.33
2016-03-10T08:02:58.378Z,989.34
2016-03-10T08:03:58.396Z,989.39
2016-03-10T08:04:58.382Z,989.35
2016-03-10T08:05:58.385Z,989.31
2016-03-10T08:06:58.403Z,989.33
2016-03-10T08:07:58.389Z,989.34
2016-03-10T08:08:58.392Z,989.33
2016-03-10T08:09:58.395Z,989.38
2016-03-10T08:10:58.398Z,989.35
2016-03-10T08:11:58.400Z,989.37
2016-03-10T08:12:58.403Z,989.38
2016-03-10T08:13:58.405Z,989.36
2016-03-10T08:14:58.409Z,989.38
2016-03-10T08:15:58.411Z,989.37
2016-03-10T08:16:58.414Z,989.32
2016-03-10T08:17:58.417Z,989.38
2016-03-10T08:18:58.419Z,989.36
2016-03-10T08:19:58.422Z,989.35
2016-03-10T08:20:58.424Z,989.33
2016-03-10T08:21:58.444Z,989.33
2016-03-10T08:22:58.430Z,989.32
2016-03-10T08:23:58.449Z,989.32
2016-03-10T08:24:58.451Z,989.34
2016-03-10T08:25:58.454Z,989.38
2016-03-10T08:26:58.457Z,989.38
2016-03-10T08:27:58.459Z,989.33
2016-03-10T08:28:58.462Z,989.41
2016-03-10T08:29:58.465Z,989.36
2016-03-10T08:30:58.468Z,989.39
2016-03-10T08:31:58.470Z,989.41
2016-03-10T08:32:58.473Z,989.4
2016-03-10T08:33:58.476Z,989.39
2016-03-10T08:34:58.478Z,989.42
2016-03-10T08:35:58.481Z,989.41
2016-03-10T08:36:58.483Z,989.39
2016-03-10T08:37:58.487Z,989.39
2016-03-10T08:38:58.473Z,989.41
2016-03-10T08:39:58.492Z,989.41
2016-03-10T08:40:58.479Z,989.47
2016-03-10T08:41:58.481Z,989.47
2016-03-10T08:42:58.484Z,989.51
2016-03-10T08:43:58.487Z,989.5
2016-03-10T08:44:58.474Z,989.49
2016-03-10T08:45:58.476Z,989.49
2016-03-10T08:46:58.478Z,989.53
2016-03-10T08:47:58.481Z,989.54
2016-03-10T08:48:58.469Z,989.51
2016-03-10T08:49:58.471Z,989.54
2016-03-10T08:50:58.474Z,989.54
2016-03-10T08:51:58.477Z,989.53
2016-03-10T08:52:58.480Z,989.62
2016-03-10T08:53:58.467Z,989.6
2016-03-10T08:54:58.469Z,989.67
2016-03-10T08:55:58.472Z,989.64
2016-03-10T08:56:58.459Z,989.67
2016-03-10T08:57:58.461Z,989.69
2016-03-10T08:58:58.479Z,989.66
2016-03-10T08:59:58.466Z,989.72
2016-03-10T09:00:58.454Z,989.67
2016-03-10T09:01:58.457Z,989.72
2016-03-10T09:02:58.459Z,989.65
2016-03-10T09:03:58.447Z,989.7
2016-03-10T09:04:58.449Z,989.69
2016-03-10T09:05:58.452Z,989.71
2016-03-10T09:06:58.450Z,989.72
2016-03-10T09:07:58.438Z,989.72
2016-03-10T09:08:58.441Z,989.73
2016-03-10T09:09:58.443Z,989.74
2016-03-10T09:10:58.446Z,989.73
2016-03-10T09:11:58.433Z,989.68
2016-03-10T09:12:58.436Z,989.73
2016-03-10T09:13:58.454Z,989.71
2016-03-10T09:14:58.424Z,989.75
2016-03-10T09:15:58.444Z,989.77
2016-03-10T09:16:58.430Z,989.79
2016-03-10T09:17:58.418Z,989.77
2016-03-10T09:18:58.420Z,989.79
2016-03-10T09:19:58.423Z,989.78
2016-03-10T09:20:58.426Z,989.8
2016-03-10T09:21:58.428Z,989.8
2016-03-10T09:22:58.412Z,989.79
2016-03-10T09:23:58.416Z,989.78
2016-03-10T09:24:58.403Z,989.8
2016-03-10T09:25:58.405Z,989.8
2016-03-10T09:26:58.408Z,989.81
2016-03-10T09:27:58.395Z,989.78
2016-03-10T09:28:58.429Z,989.82
2016-03-10T09:29:58.401Z,989.79
2016-03-10T09:30:58.404Z,989.79
2016-03-10T09:31:58.390Z,989.81
2016-03-10T09:32:58.392Z,989.84
2016-03-10T09:33:58.395Z,989.79
2016-03-10T09:34:58.383Z,989.84
2016-03-10T09:35:58.385Z,989.82
2016-03-10T09:36:58.388Z,989.83
2016-03-10T09:37:58.391Z,989.85
2016-03-10T09:38:58.394Z,989.83
2016-03-10T09:39:58.380Z,989.87
2016-03-10T09:40:58.384Z,989.89
2016-03-10T09:41:58.370Z,989.9
2016-03-10T09:42:58.373Z,989.84
2016-03-10T09:43:58.375Z,989.87
2016-03-10T09:44:58.378Z,989.86
2016-03-10T09:45:58.366Z,989.86
2016-03-10T09:46:58.368Z,989.86
2016-03-10T09:47:58.371Z,989.88
2016-03-10T09:48:58.358Z,989.88
2016-03-10T09:49:58.360Z,989.89
2016-03-10T09:50:58.368Z,989.86
2016-03-10T09:51:58.355Z,989.86
2016-03-10T09:52:58.358Z,989.9
2016-03-10T09:53:58.360Z,989.87
2016-03-10T09:54:58.362Z,989.89
2016-03-10T09:55:58.366Z,989.87
2016-03-10T09:56:58.353Z,989.96
2016-03-10T09:57:58.356Z,989.96
2016-03-10T09:58:58.359Z,989.95
2016-03-10T09:59:58.346Z,989.93
2016-03-10T10:00:58.348Z,989.99
2016-03-10T10:01:58.350Z,989.95
2016-03-10T10:02:58.339Z,989.98
2016-03-10T10:03:58.341Z,989.98
2016-03-10T10:04:58.344Z,989.96
2016-03-10T10:05:58.346Z,989.99
2016-03-10T10:06:58.333Z,990.01
2016-03-10T10:07:58.336Z,990
2016-03-10T10:08:58.338Z,990
2016-03-10T10:09:58.341Z,990.07
2016-03-10T10:10:58.328Z,990.01
2016-03-10T10:11:58.330Z,990
2016-03-10T10:12:58.333Z,989.98
2016-03-10T10:13:58.336Z,990.07
2016-03-10T10:14:58.338Z,990.04
2016-03-10T10:15:58.326Z,990.07
2016-03-10T10:16:58.328Z,990.08
2016-03-10T10:17:58.332Z,990.09
2016-03-10T10:18:58.318Z,990.07
2016-03-10T10:19:58.321Z,990.08
2016-03-10T10:20:58.324Z,990.06
2016-03-10T10:21:58.326Z,990.07
2016-03-10T10:22:58.329Z,990.05
2016-03-10T10:23:58.316Z,990.08
2016-03-10T10:24:58.319Z,990.09
2016-03-10T10:25:58.321Z,990.1
2016-03-10T10:26:58.323Z,990.08
2016-03-10T10:27:58.326Z,990.09
2016-03-10T10:28:58.314Z,990.08
2016-03-10T10:29:58.332Z,990.08
2016-03-10T10:30:58.320Z,990.09
2016-03-10T10:31:58.322Z,990.06
2016-03-10T10:32:58.325Z,990.06
2016-03-10T10:33:58.328Z,990.09
2016-03-10T10:34:58.314Z,990.09
2016-03-10T10:35:58.317Z,990.11
2016-03-10T10:36:58.320Z,990.05
2016-03-10T10:37:58.322Z,990.12
2016-03-10T10:38:58.310Z,990.1
2016-03-10T10:39:58.313Z,990.1
2016-03-10T10:40:58.315Z,990.08
2016-03-10T10:41:58.318Z,990.13
2016-03-10T10:42:58.321Z,990.1
2016-03-10T10:43:58.323Z,990.07
2016-03-10T10:44:58.310Z,990.13
2016-03-10T10:45:58.313Z,990.09
2016-03-10T10:46:58.315Z,990.11
2016-03-10T10:47:58.303Z,990.13
2016-03-10T10:48:58.305Z,990.09
2016-03-10T10:49:58.308Z,990.13
2016-03-10T10:50:58.310Z,990.15
2016-03-10T10:51:58.313Z,990.13
2016-03-10T10:52:58.301Z,990.14
2016-03-10T10:53:58.303Z,990.13
2016-03-10T10:54:58.306Z,990.14
2016-03-10T10:55:58.309Z,990.14
2016-03-10T10:56:58.312Z,990.15
2016-03-10T10:57:58.298Z,990.16
2016-03-10T10:58:58.317Z,990.13
2016-03-10T10:59:58.303Z,990.15
2016-03-10T11:00:58.306Z,990.17
2016-03-10T11:01:58.325Z,990.17
2016-03-10T11:02:58.312Z,990.18
2016-03-10T11:03:58.299Z,990.13
2016-03-10T11:04:58.301Z,990.2
2016-03-10T11:05:58.304Z,990.15
2016-03-10T11:06:58.306Z,990.2
2016-03-10T11:07:58.309Z,990.19
2016-03-10T11:08:58.296Z,990.21
2016-03-10T11:09:58.300Z,990.27
2016-03-10T11:10:58.302Z,990.26
2016-03-10T11:11:58.304Z,990.25
2016-03-10T11:12:58.307Z,990.31
2016-03-10T11:13:58.310Z,990.28
2016-03-10T11:14:58.313Z,990.26
2016-03-10T11:15:58.300Z,990.29
2016-03-10T11:16:58.318Z,990.27
2016-03-10T11:17:58.305Z,990.27
2016-03-10T11:18:58.324Z,990.25
2016-03-10T11:19:58.310Z,990.29
2016-03-10T11:20:58.313Z,990.24
2016-03-10T11:21:58.315Z,990.3
2016-03-10T11:22:58.303Z,990.26
2016-03-10T11:23:58.306Z,990.26
2016-03-10T11:24:58.309Z,990.25
2016-03-10T11:25:58.295Z,990.26
2016-03-10T11:26:58.298Z,990.29
2016-03-10T11:27:58.301Z,990.29
2016-03-10T11:28:58.304Z,990.24
2016-03-10T11:29:58.306Z,990.28
2016-03-10T11:30:58.309Z,990.28
2016-03-10T11:31:58.296Z,990.28
2016-03-10T11:32:58.298Z,990.26
2016-03-10T11:33:58.301Z,990.26
2016-03-10T11:34:58.304Z,990.26
2016-03-10T11:35:58.306Z,990.24
2016-03-10T11:36:58.294Z,990.24
2016-03-10T11:37:58.297Z,990.29
2016-03-10T11:38:58.300Z,990.26
2016-03-10T11:39:58.302Z,990.29
2016-03-10T11:40:58.305Z,990.25
2016-03-10T11:41:58.307Z,990.26
2016-03-10T11:42:58.310Z,990.24
2016-03-10T11:43:58.297Z,990.23
2016-03-10T11:44:58.299Z,990.24
2016-03-10T11:45:58.302Z,990.24
2016-03-10T11:46:58.305Z,990.26
2016-03-10T11:47:58.307Z,990.27
2016-03-10T11:48:58.294Z,990.24
2016-03-10T11:49:58.297Z,990.23
2016-03-10T11:50:58.300Z,990.26
2016-03-10T11:51:58.302Z,990.25
2016-03-10T11:52:58.305Z,990.24
2016-03-10T11:53:58.308Z,990.29
2016-03-10T11:54:58.311Z,990.24
2016-03-10T11:55:58.298Z,990.23
2016-03-10T11:56:58.301Z,990.26
2016-03-10T11:57:58.304Z,990.21
2016-03-10T11:58:58.307Z,990.23
2016-03-10T11:59:58.309Z,990.23
2016-03-10T12:00:58.296Z,990.25
2016-03-10T12:01:58.315Z,990.26
2016-03-10T12:02:58.301Z,990.25
2016-03-10T12:03:58.304Z,990.2
2016-03-10T12:04:58.306Z,990.27
2016-03-10T12:05:58.310Z,990.23
2016-03-10T12:06:58.311Z,990.22
2016-03-10T12:07:58.300Z,990.24
2016-03-10T12:08:58.303Z,990.27
2016-03-10T12:09:58.304Z,990.23
2016-03-10T12:10:58.308Z,990.25
2016-03-10T12:11:58.310Z,990.26
2016-03-10T12:12:58.312Z,990.24
2016-03-10T12:13:58.315Z,990.25
2016-03-10T12:14:58.318Z,990.3
2016-03-10T12:15:58.305Z,990.29
2016-03-10T12:16:58.307Z,990.26
2016-03-10T12:17:58.311Z,990.29
2016-03-10T12:18:58.313Z,990.27
2016-03-10T12:19:58.316Z,990.29
2016-03-10T12:20:58.319Z,990.27
2016-03-10T12:21:58.321Z,990.27
2016-03-10T12:22:58.308Z,990.32
2016-03-10T12:23:58.311Z,990.32
2016-03-10T12:24:58.313Z,990.32
2016-03-10T12:25:58.316Z,990.34
2016-03-10T12:26:58.319Z,990.32
2016-03-10T12:27:58.321Z,990.3
2016-03-10T12:28:58.324Z,990.37
2016-03-10T12:29:58.312Z,990.35